Time;durP1;ratioP1;P1;durP2;ratioP2;P2;SDS_P1;SDS_P2;PMS_P1;PMS_P2;Temp;Humidity;BMP_temperature;BMP_pressure;BME280_temperature;BME280_humidity;BME280_pressure;Samples;Min_cycle;Max_cycle;Signal;HPM_P1;HPM_P2
2022/08/14 00:00:14;;;;;;;7.93;3.53;;;;;;;18.29;100.00;99771.94;4847579;29;20298;-58
2022/08/14 00:02:51;;;;;;;5.73;3.07;;;;;;;18.31;99.40;99772.69;4847851;29;20295;-58
2022/08/14 00:05:24;;;;;;;7.67;3.43;;;;;;;18.30;100.00;99784.22;4842292;29;20333;-58
2022/08/14 00:07:56;;;;;;;3.80;3.33;;;;;;;18.36;99.86;99794.44;4841167;29;20585;-59
2022/08/14 00:10:29;;;;;;;4.00;2.90;;;;;;;18.45;99.51;99804.53;4827390;29;20386;-58
2022/08/14 00:13:22;;;;;;;3.60;2.93;;;;;;;18.41;99.16;99802.97;4825536;29;20306;-58
2022/08/14 00:16:01;;;;;;;5.05;3.20;;;;;;;18.47;98.71;99797.38;4829094;29;20296;-58
2022/08/14 00:18:32;;;;;;;6.17;3.03;;;;;;;18.60;98.81;99796.66;4828525;29;20096;-58
2022/08/14 00:21:26;;;;;;;5.10;3.20;;;;;;;18.78;98.43;99795.63;4828804;29;20301;-58
2022/08/14 00:24:03;;;;;;;5.70;3.63;;;;;;;18.81;97.69;99792.81;4829508;29;20335;-57
2022/08/14 00:26:43;;;;;;;5.47;2.97;;;;;;;18.77;96.77;99793.94;4823671;29;20501;-58
2022/08/14 00:29:15;;;;;;;4.23;3.20;;;;;;;18.70;96.80;99787.25;4828603;29;20065;-57
2022/08/14 00:31:56;;;;;;;8.67;3.30;;;;;;;18.67;97.26;99782.13;4825769;29;20510;-57
2022/08/14 00:34:36;;;;;;;3.80;2.97;;;;;;;18.78;97.04;99790.34;4828048;29;20306;-58
2022/08/14 00:37:19;;;;;;;6.15;3.20;;;;;;;18.72;97.11;99788.88;4828975;29;20287;-56
2022/08/14 00:39:52;;;;;;;6.43;3.20;;;;;;;18.77;97.15;99783.34;4828772;29;20131;-56
2022/08/14 00:42:28;;;;;;;6.73;3.33;;;;;;;18.84;97.38;99789.97;4829582;29;20288;-56
2022/08/14 00:45:20;;;;;;;7.00;3.63;;;;;;;18.89;97.53;99795.84;4828794;29;20308;-57
2022/08/14 00:47:52;;;;;;;4.53;2.93;;;;;;;18.92;96.65;99798.34;4828425;29;20356;-57
2022/08/14 00:50:33;;;;;;;4.10;3.20;;;;;;;18.82;95.76;99805.13;4828358;29;20306;-56
2022/08/14 00:53:09;;;;;;;5.80;3.13;;;;;;;18.81;96.54;99806.03;4828047;29;20288;-57
2022/08/14 00:55:47;;;;;;;3.67;2.67;;;;;;;18.84;96.16;99795.25;4827775;29;20306;-57
2022/08/14 00:58:34;;;;;;;3.50;2.43;;;;;;;18.98;95.72;99794.47;4827982;29;20375;-57
2022/08/14 01:01:17;;;;;;;3.67;2.80;;;;;;;19.05;94.67;99789.69;4825785;29;20374;-56
2022/08/14 01:03:53;;;;;;;7.23;3.40;;;;;;;19.15;94.19;99793.50;4827550;29;20319;-56
2022/08/14 01:06:24;;;;;;;4.40;3.10;;;;;;;19.32;94.55;99789.81;4828339;29;20291;-57
2022/08/14 01:09:01;;;;;;;4.53;3.00;;;;;;;19.47;93.95;99785.38;4828445;29;20358;-56
2022/08/14 01:11:33;;;;;;;5.00;2.40;;;;;;;19.49;92.06;99791.44;4828239;29;20315;-57
2022/08/14 01:14:06;;;;;;;3.07;2.23;;;;;;;19.49;91.04;99787.00;4828103;29;20311;-58
2022/08/14 01:16:58;;;;;;;4.43;3.00;;;;;;;19.62;91.61;99781.81;4828272;29;20304;-56
2022/08/14 01:22:27;;;;;;;5.23;2.20;;;;;;;19.47;91.90;99777.44;4806433;29;20343;-56
2022/08/14 01:24:58;;;;;;;5.53;2.00;;;;;;;19.38;92.89;99778.84;4827383;29;20323;-57
2022/08/14 01:27:31;;;;;;;3.60;2.53;;;;;;;19.37;93.23;99770.06;4828311;29;20307;-56
2022/08/14 01:49:12;;;;;;;7.83;2.70;;;;;;;19.77;90.32;99740.28;4827589;29;20325;-56
2022/08/14 01:51:45;;;;;;;3.77;2.37;;;;;;;19.90;90.93;99743.00;4827627;29;20323;-56
2022/08/14 01:54:22;;;;;;;7.03;2.93;;;;;;;19.99;90.50;99731.81;4827667;29;20311;-58
2022/08/14 01:57:09;;;;;;;2.80;2.10;;;;;;;20.17;90.09;99735.94;4827520;29;20893;-57
2022/08/14 01:59:49;;;;;;;3.27;2.50;;;;;;;20.35;89.01;99733.06;4827749;29;20292;-57
2022/08/14 02:02:21;;;;;;;4.03;2.27;;;;;;;20.54;88.32;99741.47;4827645;29;20418;-57
2022/08/14 02:04:55;;;;;;;4.13;3.17;;;;;;;20.64;86.79;99745.28;4827338;29;20291;-57
2022/08/14 02:07:31;;;;;;;7.07;2.67;;;;;;;20.78;86.40;99735.53;4827721;29;20536;-57
2022/08/14 02:10:27;;;;;;;3.87;2.90;;;;;;;20.95;85.75;99732.59;4825483;29;20506;-58
2022/08/14 02:13:07;;;;;;;4.10;2.90;;;;;;;20.99;85.25;99728.78;4827519;29;20322;-57
2022/08/14 02:15:41;;;;;;;3.30;2.87;;;;;;;20.94;84.59;99720.25;4827150;29;20300;-57
2022/08/14 02:18:13;;;;;;;5.97;3.30;;;;;;;21.06;84.52;99730.03;4827860;29;20628;-57
2022/08/14 02:20:48;;;;;;;2.80;2.33;;;;;;;21.06;84.21;99727.38;4827371;29;20344;-56
2022/08/14 02:23:20;;;;;;;4.90;2.93;;;;;;;21.05;84.17;99723.03;4827166;29;20326;-57
2022/08/14 02:26:03;;;;;;;3.43;2.80;;;;;;;21.18;84.24;99712.41;4827083;29;20300;-57
2022/08/14 02:29:00;;;;;;;4.43;2.53;;;;;;;21.51;83.95;99709.22;4826929;29;20300;-57
2022/08/14 02:31:38;;;;;;;6.00;2.80;;;;;;;21.76;83.06;99718.97;4827305;29;20304;-58
2022/08/14 02:34:17;;;;;;;6.83;4.07;;;;;;;21.81;81.08;99710.66;4826647;29;20062;-57
2022/08/14 02:37:01;;;;;;;6.03;3.60;;;;;;;21.68;80.30;99709.84;4825000;29;20065;-58
2022/08/14 02:39:37;;;;;;;4.87;3.17;;;;;;;21.62;80.16;99702.34;4826711;29;20620;-58
2022/08/14 02:42:11;;;;;;;5.63;3.33;;;;;;;21.72;79.83;99706.03;4827268;29;20322;-57
2022/08/14 02:44:44;;;;;;;3.90;2.60;;;;;;;21.87;80.83;99696.09;4827144;29;20066;-57
2022/08/14 02:47:21;;;;;;;2.63;2.10;;;;;;;21.94;81.11;99681.38;4826784;29;20335;-57
2022/08/14 02:49:55;;;;;;;3.67;2.30;;;;;;;21.90;80.17;99699.38;4826168;29;20252;-57
2022/08/14 02:52:31;;;;;;;2.93;2.40;;;;;;;22.02;80.94;99696.81;4826726;29;20119;-57
2022/08/14 02:55:22;;;;;;;3.37;2.50;;;;;;;22.24;80.24;99701.41;4826717;29;20050;-57
2022/08/14 02:57:56;;;;;;;4.67;2.67;;;;;;;22.32;78.43;99705.22;4826873;29;20117;-58
2022/08/14 03:00:35;;;;;;;3.17;2.67;;;;;;;22.58;77.39;99710.41;4826405;29;20066;-57
2022/08/14 03:03:09;;;;;;;2.70;2.37;;;;;;;22.61;77.07;99715.47;4825905;29;20069;-58
2022/08/14 03:05:40;;;;;;;6.07;2.70;;;;;;;22.38;76.77;99710.06;4825659;29;20047;-59
2022/08/14 03:08:14;;;;;;;3.37;2.47;;;;;;;22.21;77.05;99670.53;4828320;29;20351;-58
2022/08/14 03:10:48;;;;;;;3.70;2.33;;;;;;;22.45;77.74;99688.34;4828970;29;20205;-56
2022/08/14 03:13:20;;;;;;;2.83;2.33;;;;;;;22.42;76.43;99635.34;4829703;29;20085;-58
2022/08/14 03:15:54;;;;;;;4.03;2.33;;;;;;;22.60;77.14;99676.53;4826709;29;20380;-57
2022/08/14 03:18:30;;;;;;;2.30;1.90;;;;;;;22.51;77.41;99687.84;4829334;29;20260;-57
2022/08/14 03:21:03;;;;;;;3.27;2.27;;;;;;;22.15;78.93;99673.66;4829282;29;20121;-57
2022/08/14 03:23:37;;;;;;;2.40;2.10;;;;;;;22.40;78.67;99686.84;4829892;29;20062;-57
2022/08/14 03:26:09;;;;;;;4.07;2.43;;;;;;;22.56;77.64;99669.72;4829776;29;20062;-59
2022/08/14 03:28:49;;;;;;;4.90;2.70;;;;;;;23.04;76.53;99669.66;4829738;29;20076;-58
2022/08/14 03:31:22;;;;;;;4.67;2.10;;;;;;;23.36;75.38;99668.91;4829630;29;20470;-56
2022/08/14 03:33:56;;;;;;;3.03;2.23;;;;;;;23.18;72.44;99672.06;4829539;29;20058;-57
2022/08/14 03:36:31;;;;;;;4.00;2.53;;;;;;;22.86;73.95;99681.66;4829630;29;20042;-58
2022/08/14 03:39:36;;;;;;;5.63;2.60;;;;;;;22.53;75.51;99680.63;4826960;29;20050;-57
2022/08/14 03:42:15;;;;;;;6.07;2.60;;;;;;;22.48;76.82;99674.78;4825787;29;20197;-56
2022/08/14 03:44:52;;;;;;;3.90;2.33;;;;;;;22.52;76.94;99673.59;4826036;29;20065;-58
2022/08/14 03:47:48;;;;;;;3.13;2.60;;;;;;;22.61;75.38;99684.41;4826525;29;20042;-58
2022/08/14 04:02:39;;;;;;;4.50;2.00;;;;;;;23.38;73.88;99664.31;5109936;28;20055;-58
2022/08/14 04:05:16;;;;;;;7.33;2.17;;;;;;;23.15;73.54;99666.13;5122868;28;20117;-57
2022/08/14 04:07:47;;;;;;;3.90;2.43;;;;;;;22.94;73.16;99658.81;5122291;28;20058;-59
2022/08/14 04:10:39;;;;;;;3.17;2.10;;;;;;;22.93;74.45;99665.09;5121068;28;20035;-58
2022/08/14 04:13:11;;;;;;;6.17;2.30;;;;;;;23.00;74.90;99657.50;5122655;28;20035;-58
2022/08/14 04:15:44;;;;;;;2.60;2.20;;;;;;;23.03;74.69;99651.94;5122668;28;20051;-60
2022/08/14 04:18:32;;;;;;;4.47;2.40;;;;;;;23.01;74.43;99643.22;5122899;28;20047;-58
2022/08/14 04:21:05;;;;;;;4.40;2.27;;;;;;;22.95;75.43;99633.03;5122915;28;20063;-58
2022/08/14 04:23:37;;;;;;;5.20;2.10;;;;;;;22.99;75.69;99623.88;5122041;28;20107;-57
2022/08/14 04:26:11;;;;;;;5.23;2.17;;;;;;;23.07;75.61;99615.25;5122290;27;20043;-57
2022/08/14 04:28:57;;;;;;;4.50;2.40;;;;;;;23.18;75.75;99616.09;5119934;28;20059;-58
2022/08/14 04:31:49;;;;;;;4.00;2.03;;;;;;;23.32;74.90;99635.50;5121963;28;20079;-59
2022/08/14 04:34:48;;;;;;;3.47;2.50;;;;;;;23.27;74.74;99649.19;5122166;28;20056;-58
2022/08/14 04:45:50;;;;;;;4.57;1.87;;;;;;;22.46;77.55;99671.38;5118372;28;20059;-59
2022/08/14 04:48:22;;;;;;;3.80;2.10;;;;;;;22.37;77.63;99660.47;5118719;28;20044;-59
2022/08/14 04:51:15;;;;;;;2.57;2.00;;;;;;;22.37;78.09;99655.16;5117669;28;20051;-60
2022/08/14 04:53:47;;;;;;;2.40;1.93;;;;;;;22.38;78.48;99662.16;5145683;27;20118;-58
2022/08/14 04:56:22;;;;;;;3.43;2.00;;;;;;;22.33;77.47;99674.97;5162192;27;20119;-59
2022/08/14 04:59:06;;;;;;;6.53;2.70;;;;;;;22.04;79.47;99676.22;5162944;27;20073;-57
2022/08/14 05:01:58;;;;;;;3.70;2.27;;;;;;;21.80;79.27;99670.91;5162343;27;20047;-59
2022/08/14 05:04:47;;;;;;;4.90;2.07;;;;;;;21.62;81.22;99671.28;5156718;27;20043;-59
2022/08/14 05:07:27;;;;;;;3.93;2.20;;;;;;;21.47;81.28;99659.94;5149417;27;20117;-57
2022/08/14 05:10:24;;;;;;;2.63;1.70;;;;;;;21.36;82.62;99665.09;5148695;27;20035;-59
2022/08/14 05:13:04;;;;;;;3.17;2.10;;;;;;;21.30;83.04;99665.56;5149497;27;20137;-57
2022/08/14 05:15:43;;;;;;;5.70;2.43;;;;;;;21.27;83.53;99652.50;5149575;27;21103;-58
2022/08/14 05:18:18;;;;;;;9.00;2.40;;;;;;;21.16;84.59;99649.72;5149802;27;20087;-57
2022/08/14 05:21:12;;;;;;;7.50;2.90;;;;;;;21.03;85.00;99632.00;5148745;27;20567;-57
2022/08/14 05:24:05;;;;;;;8.67;2.20;;;;;;;21.08;85.14;99648.44;5149204;27;20066;-57
2022/08/14 05:26:46;;;;;;;6.93;2.43;;;;;;;21.18;85.09;99653.13;5149267;27;20039;-59
2022/08/14 05:29:17;;;;;;;6.00;2.17;;;;;;;21.10;84.37;99657.16;5149222;27;20046;-58
2022/08/14 05:31:48;;;;;;;5.17;2.03;;;;;;;21.03;84.50;99658.53;5149264;27;20280;-58
2022/08/14 05:34:28;;;;;;;2.83;2.20;;;;;;;21.05;85.09;99653.97;5149019;27;20312;-58
2022/08/14 05:37:00;;;;;;;4.97;2.30;;;;;;;21.02;84.49;99648.88;5148965;27;20396;-58
2022/08/14 05:39:34;;;;;;;2.77;1.87;;;;;;;21.05;84.73;99642.50;5148537;27;20279;-57
2022/08/14 05:42:09;;;;;;;2.23;1.70;;;;;;;21.04;84.14;99652.28;5148182;27;20046;-58
2022/08/14 05:44:55;;;;;;;2.93;1.90;;;;;;;21.04;85.08;99654.94;5148716;27;20339;-60
2022/08/14 05:47:29;;;;;;;3.53;1.80;;;;;;;21.04;84.76;99668.22;5148905;27;20490;-58
2022/08/14 05:50:11;;;;;;;2.63;1.60;;;;;;;21.00;84.80;99677.34;5147818;27;20291;-58
2022/08/14 05:52:53;;;;;;;2.63;1.83;;;;;;;21.00;85.33;99679.16;5148653;27;20300;-58
2022/08/14 05:55:26;;;;;;;3.57;1.80;;;;;;;20.94;85.16;99683.06;5147338;27;20336;-58
2022/08/14 05:58:01;;;;;;;6.20;2.27;;;;;;;20.72;85.37;99646.53;5148599;27;20288;-58
2022/08/14 06:00:36;;;;;;;2.03;1.67;;;;;;;20.85;85.27;99668.63;5148342;27;20357;-59
2022/08/14 06:03:13;;;;;;;3.13;1.77;;;;;;;20.89;84.92;99658.66;5148342;27;20292;-58
2022/08/14 06:05:45;;;;;;;6.17;1.97;;;;;;;21.03;85.46;99669.16;5148338;27;20301;-59
2022/08/14 06:08:22;;;;;;;4.37;1.93;;;;;;;21.10;84.71;99670.44;5148444;27;20365;-58
2022/08/14 06:11:12;;;;;;;7.20;1.97;;;;;;;21.01;83.60;99683.50;5148205;27;20289;-59
2022/08/14 06:13:57;;;;;;;10.27;2.00;;;;;;;20.92;83.99;99669.06;5147931;27;20361;-57
2022/08/14 06:16:28;;;;;;;3.87;1.80;;;;;;;20.82;84.33;99678.63;5147106;27;20283;-58
2022/08/14 06:19:01;;;;;;;3.40;2.07;;;;;;;20.75;84.79;99661.41;5147743;27;20288;-57
2022/08/14 06:21:33;;;;;;;6.40;2.47;;;;;;;20.70;84.06;99663.53;5148075;27;20291;-58
2022/08/14 06:24:05;;;;;;;13.47;2.60;;;;;;;20.71;85.13;99659.91;5148021;27;20352;-57
2022/08/14 06:26:53;;;;;;;2.90;2.03;;;;;;;20.74;84.39;99657.03;5148162;27;20303;-57
2022/08/14 06:29:35;;;;;;;8.73;2.60;;;;;;;20.78;84.46;99659.38;5147736;27;20290;-57
2022/08/14 06:32:07;;;;;;;7.47;2.47;;;;;;;20.85;84.50;99657.16;5146784;27;20594;-57
2022/08/14 06:35:00;;;;;;;7.90;2.17;;;;;;;20.99;84.67;99662.41;5146694;27;20304;-58
2022/08/14 06:37:44;;;;;;;6.27;2.17;;;;;;;21.02;84.56;99659.50;5147356;27;20305;-57
2022/08/14 06:40:21;;;;;;;9.20;2.77;;;;;;;21.05;84.85;99669.91;5146716;27;20636;-57
2022/08/14 06:43:00;;;;;;;6.57;2.70;;;;;;;21.00;84.33;99674.69;5146920;27;20291;-57
2022/08/14 06:45:33;;;;;;;8.03;2.43;;;;;;;20.90;84.28;99665.66;5147463;27;20285;-57
2022/08/14 06:48:27;;;;;;;4.10;2.40;;;;;;;21.16;84.95;99670.97;5147496;27;20297;-58
2022/08/14 06:51:01;;;;;;;9.30;2.70;;;;;;;21.43;83.46;99674.38;5147277;27;20296;-56
2022/08/14 06:53:32;;;;;;;3.13;2.20;;;;;;;21.52;83.30;99673.75;5146669;27;20277;-57
2022/08/14 06:56:04;;;;;;;7.57;2.83;;;;;;;21.36;83.02;99630.56;5147075;27;20280;-57
2022/08/14 06:58:37;;;;;;;4.47;2.50;;;;;;;21.63;82.19;99664.13;5144915;27;20070;-58
2022/08/14 07:06:55;;;;;;;7.70;3.00;;;;;;;21.71;82.42;99675.91;5147297;27;20050;-58
2022/08/14 07:09:29;;;;;;;6.40;2.70;;;;;;;21.93;81.72;99669.88;5145841;27;20324;-57
2022/08/14 07:12:22;;;;;;;5.67;2.67;;;;;;;22.13;80.87;99672.91;5144729;27;20096;-58
2022/08/14 07:15:15;;;;;;;5.03;2.97;;;;;;;21.92;80.50;99660.22;5146803;27;20055;-57
2022/08/14 07:17:48;;;;;;;4.83;2.90;;;;;;;21.69;80.79;99669.00;5144665;27;20086;-57
2022/08/14 07:20:22;;;;;;;6.40;3.20;;;;;;;21.33;81.27;99646.72;5145356;27;20043;-58
2022/08/14 07:23:04;;;;;;;5.90;3.40;;;;;;;21.47;82.80;99669.72;5145951;27;20258;-56
2022/08/14 07:25:43;;;;;;;4.35;3.03;;;;;;;21.50;82.43;99670.34;5146669;27;20057;-58
2022/08/14 07:28:18;;;;;;;3.90;2.90;;;;;;;21.34;81.76;99664.34;5145595;27;20240;-56
2022/08/14 07:30:56;;;;;;;5.23;3.33;;;;;;;21.00;83.22;99674.69;5146141;27;20067;-57
2022/08/14 07:33:39;;;;;;;7.83;3.80;;;;;;;20.86;84.56;99674.78;5146622;27;20537;-57
2022/08/14 07:36:12;;;;;;;7.80;3.30;;;;;;;20.78;84.68;99671.81;5146352;27;20342;-57
2022/08/14 07:39:07;;;;;;;12.43;3.90;;;;;;;20.62;85.23;99667.56;5145446;27;20335;-57
2022/08/14 07:42:08;;;;;;;6.43;3.30;;;;;;;20.41;85.93;99668.94;5146055;27;20046;-57
2022/08/14 07:44:57;;;;;;;13.83;3.83;;;;;;;20.30;86.98;99674.13;5145072;27;20301;-57
2022/08/14 07:47:34;;;;;;;11.57;3.77;;;;;;;20.32;87.04;99681.03;5146362;27;20573;-57
2022/08/14 07:50:18;;;;;;;4.70;3.07;;;;;;;20.54;86.90;99677.78;5145335;27;20562;-57
2022/08/14 07:52:52;;;;;;;11.60;3.30;;;;;;;20.47;86.45;99668.56;5146270;27;20641;-56
2022/08/14 07:55:25;;;;;;;5.70;3.03;;;;;;;20.19;86.67;99683.66;5146324;27;20554;-58
2022/08/14 07:58:04;;;;;;;9.40;3.17;;;;;;;19.90;87.90;99682.03;5146044;27;20330;-56
2022/08/14 08:01:02;;;;;;;8.17;3.20;;;;;;;19.64;89.20;99689.78;5145765;27;20280;-57
2022/08/14 08:03:49;;;;;;;3.77;2.80;;;;;;;19.20;90.16;99643.09;5145993;27;20790;-57
2022/08/14 08:06:37;;;;;;;3.20;2.80;;;;;;;19.40;90.78;99690.38;5145323;27;20726;-58
2022/08/14 08:09:20;;;;;;;5.90;3.43;;;;;;;19.34;91.32;99687.25;5144956;27;20292;-57
2022/08/14 08:12:06;;;;;;;5.45;3.00;;;;;;;19.28;91.64;99682.34;5146286;27;20281;-58
2022/08/14 08:14:53;;;;;;;8.70;3.73;;;;;;;19.15;92.17;99666.38;5144297;27;20043;-57
2022/08/14 08:17:38;;;;;;;9.10;3.50;;;;;;;19.20;92.63;99685.47;5146029;27;20931;-56
2022/08/14 08:20:28;;;;;;;7.57;3.10;;;;;;;18.99;92.75;99649.72;5146165;27;20330;-57
2022/08/14 08:23:05;;;;;;;5.83;3.20;;;;;;;19.32;92.61;99689.16;5145053;27;20307;-58
2022/08/14 08:25:59;;;;;;;37.20;5.07;;;;;;;19.25;92.36;99683.41;5145829;27;20284;-59
2022/08/14 08:28:45;;;;;;;9.77;3.30;;;;;;;19.39;92.79;99685.19;5144799;27;20329;-58
2022/08/14 08:31:30;;;;;;;5.63;2.93;;;;;;;19.38;91.36;99678.19;5144523;27;20353;-60
2022/08/14 08:34:14;;;;;;;4.97;3.03;;;;;;;19.42;92.30;99694.72;5145511;27;20457;-58
2022/08/14 08:37:05;;;;;;;3.37;2.80;;;;;;;19.40;91.87;99687.75;5145863;27;20300;-58
2022/08/14 08:39:52;;;;;;;8.17;3.60;;;;;;;19.49;92.35;99685.47;5145957;27;20302;-59
2022/08/14 08:42:36;;;;;;;8.17;3.57;;;;;;;19.54;91.50;99684.22;5149784;27;20269;-59
2022/08/14 08:45:19;;;;;;;13.17;3.60;;;;;;;19.35;91.81;99673.09;5149799;27;20296;-58
2022/08/14 08:47:57;;;;;;;7.93;3.50;;;;;;;19.23;92.18;99677.34;5149860;27;20288;-59
2022/08/14 08:50:49;;;;;;;5.67;3.23;;;;;;;19.23;92.95;99672.03;5149555;27;20292;-57
2022/08/14 08:53:40;;;;;;;3.43;3.00;;;;;;;19.20;92.92;99680.19;5149296;27;20293;-58
2022/08/14 08:56:24;;;;;;;7.00;3.30;;;;;;;19.11;93.36;99678.09;5149123;27;20308;-59
2022/08/14 08:59:43;;;;;;;12.93;3.43;;;;;;;19.00;93.92;99683.19;5145918;27;20478;-57
2022/08/14 09:03:03;;;;;;;10.90;4.10;;;;;;;18.79;94.77;99670.28;5147970;27;20343;-57
2022/08/14 09:05:58;;;;;;;11.10;4.07;;;;;;;18.77;95.20;99688.06;5149417;27;20308;-57
2022/08/14 09:09:24;;;;;;;7.50;3.80;;;;;;;18.68;96.07;99691.22;5148994;27;20268;-58
2022/08/14 09:12:12;;;;;;;6.47;3.97;;;;;;;18.60;96.54;99688.19;5148636;27;20300;-58
2022/08/14 09:15:10;;;;;;;7.87;3.80;;;;;;;18.58;96.83;99690.06;5148612;27;20322;-58
2022/08/14 09:18:12;;;;;;;8.25;4.18;;;;;;;18.52;96.99;99689.47;5148245;27;20296;-58
2022/08/14 09:21:21;;;;;;;8.57;4.00;;;;;;;18.45;97.29;99688.13;5149010;27;20094;-58
2022/08/14 09:24:06;;;;;;;7.13;4.00;;;;;;;18.40;97.64;99695.47;5148320;27;20308;-58
2022/08/14 09:26:57;;;;;;;13.73;5.20;;;;;;;18.27;97.74;99697.09;5149253;27;20609;-59
2022/08/14 09:29:33;;;;;;;9.57;4.23;;;;;;;18.23;98.32;99703.53;5149015;27;20288;-58
2022/08/14 09:32:12;;;;;;;11.00;4.53;;;;;;;18.23;98.51;99708.81;5149002;27;20340;-59
2022/08/14 09:35:14;;;;;;;9.47;4.20;;;;;;;18.11;98.94;99705.91;5148802;27;20269;-59
2022/08/14 09:38:01;;;;;;;6.93;4.70;;;;;;;18.10;99.37;99712.16;5148623;27;20295;-57
2022/08/14 09:40:55;;;;;;;8.13;4.73;;;;;;;18.10;99.43;99719.25;5148967;27;20265;-58
2022/08/14 09:43:36;;;;;;;6.87;4.67;;;;;;;18.03;99.72;99721.38;5148782;27;20280;-58
2022/08/14 09:46:12;;;;;;;7.50;4.70;;;;;;;18.02;99.96;99727.59;5148814;27;20342;-58
2022/08/14 09:49:00;;;;;;;12.43;5.47;;;;;;;17.93;100.00;99716.69;5148697;27;20284;-58
2022/08/14 09:51:31;;;;;;;9.43;5.10;;;;;;;17.59;100.00;99671.78;5148312;27;20450;-58
2022/08/14 09:54:22;;;;;;;11.52;4.40;;;;;;;17.91;100.00;99729.97;5148620;27;20395;-59
2022/08/14 09:57:10;;;;;;;8.13;4.80;;;;;;;17.85;100.00;99738.25;5148518;27;20086;-58
2022/08/14 10:00:39;;;;;;;9.40;4.80;;;;;;;17.86;100.00;99742.59;5148435;27;20301;-58
2022/08/14 10:07:37;;;;;;;7.55;5.03;;;;;;;17.81;100.00;99739.34;5147685;27;20291;-58
2022/08/14 10:10:16;;;;;;;10.43;5.23;;;;;;;17.74;100.00;99743.22;5148072;27;20043;-58
2022/08/14 10:12:54;;;;;;;11.90;5.73;;;;;;;17.78;100.00;99744.78;5148468;27;20301;-58
2022/08/14 10:15:29;;;;;;;6.73;4.60;;;;;;;17.76;100.00;99741.34;5148111;27;20277;-57
2022/08/14 10:18:30;;;;;;;11.80;4.87;;;;;;;17.76;100.00;99736.06;5148233;27;20371;-57
2022/08/14 10:21:42;;;;;;;14.17;5.07;;;;;;;17.72;100.00;99739.81;5147800;27;20281;-59
2022/08/14 10:25:13;;;;;;;7.57;4.10;;;;;;;17.68;100.00;99737.34;5147532;27;20280;-59
2022/08/14 10:28:08;;;;;;;12.63;3.70;;;;;;;17.58;100.00;99733.50;5052520;28;20295;-59
2022/08/14 10:31:21;;;;;;;5.80;3.77;;;;;;;17.63;100.00;99752.59;5053371;28;20798;-58
2022/08/14 10:34:15;;;;;;;8.83;4.47;;;;;;;17.30;100.00;99706.81;5053928;28;20283;-60
2022/08/14 10:37:10;;;;;;;10.53;4.67;;;;;;;17.55;100.00;99744.22;5053712;28;20357;-58
2022/08/14 10:40:01;;;;;;;9.03;4.80;;;;;;;17.55;100.00;99744.22;5053321;28;20402;-58
2022/08/14 10:42:54;;;;;;;7.60;4.77;;;;;;;17.50;100.00;99740.97;5053786;28;20284;-58
2022/08/14 10:46:03;;;;;;;10.80;5.67;;;;;;;17.43;100.00;99739.59;5054060;28;20302;-58
2022/08/14 10:49:01;;;;;;;10.20;6.17;;;;;;;17.39;100.00;99738.03;5053494;28;20287;-57
2022/08/14 10:51:35;;;;;;;13.50;5.97;;;;;;;17.30;100.00;99734.09;5053764;28;20523;-57
2022/08/14 10:54:15;;;;;;;9.77;5.57;;;;;;;17.25;100.00;99731.72;5053551;28;20292;-58
2022/08/14 10:57:20;;;;;;;12.13;6.40;;;;;;;17.19;100.00;99732.00;5051743;28;20307;-59
2022/08/14 10:59:56;;;;;;;10.57;6.77;;;;;;;17.21;100.00;99742.50;5017944;28;20311;-57
2022/08/14 11:02:35;;;;;;;11.83;6.30;;;;;;;16.92;100.00;99696.50;5002906;28;20289;-58
2022/08/14 11:05:28;;;;;;;9.97;6.07;;;;;;;17.23;100.00;99753.84;5105435;28;20483;-58
2022/08/14 11:08:08;;;;;;;10.57;5.97;;;;;;;17.27;100.00;99749.25;5106396;28;20279;-60
2022/08/14 11:10:45;;;;;;;11.67;5.83;;;;;;;17.18;100.00;99740.88;5105859;28;20282;-59
2022/08/14 11:13:26;;;;;;;12.33;6.17;;;;;;;17.19;100.00;99747.84;5106038;28;20282;-58
2022/08/14 11:16:03;;;;;;;12.27;6.40;;;;;;;17.16;100.00;99753.28;5105819;28;20277;-57
2022/08/14 11:18:39;;;;;;;10.00;6.73;;;;;;;17.08;100.00;99718.53;5106242;28;20309;-58
2022/08/14 11:21:19;;;;;;;11.67;6.30;;;;;;;17.15;100.00;99741.03;5105809;28;20286;-58
2022/08/14 11:23:51;;;;;;;11.13;6.50;;;;;;;17.19;100.00;99742.56;5104451;28;20582;-59
2022/08/14 11:26:29;;;;;;;10.53;7.13;;;;;;;17.22;100.00;99750.34;5104300;28;20305;-58
2022/08/14 11:29:07;;;;;;;12.47;6.23;;;;;;;17.19;100.00;99742.56;5105717;28;20282;-59
2022/08/14 11:31:40;;;;;;;13.63;7.37;;;;;;;17.24;100.00;99753.75;5105542;28;20274;-57
2022/08/14 11:34:33;;;;;;;9.10;6.33;;;;;;;17.27;100.00;99754.53;5105598;28;20522;-58
2022/08/14 11:37:28;;;;;;;9.90;6.47;;;;;;;17.29;100.00;99752.66;5104676;28;20334;-59
2022/08/14 11:40:42;;;;;;;12.53;6.10;;;;;;;17.24;100.00;99756.38;5105294;28;21779;-58
2022/08/14 11:43:17;;;;;;;12.27;6.10;;;;;;;17.21;100.00;99750.41;5104008;28;20485;-60
2022/08/14 11:45:59;;;;;;;10.10;6.13;;;;;;;17.16;100.00;99740.09;5105297;28;20274;-58
2022/08/14 11:48:32;;;;;;;9.53;5.87;;;;;;;17.21;100.00;99746.00;5111677;28;20281;-58
2022/08/14 11:51:27;;;;;;;12.50;6.30;;;;;;;17.21;100.00;99730.16;5118859;28;20304;-58
2022/08/14 11:54:07;;;;;;;10.73;5.27;;;;;;;17.21;100.00;99746.00;5097502;28;20305;-55
2022/08/14 11:56:42;;;;;;;10.17;5.90;;;;;;;17.09;100.00;99725.50;5088065;28;20302;-58
2022/08/14 11:59:21;;;;;;;9.33;6.03;;;;;;;17.22;100.00;99741.56;5077844;28;20293;-58
2022/08/14 12:02:11;;;;;;;10.32;6.20;;;;;;;17.29;100.00;99742.09;5077893;28;20598;-59
2022/08/14 12:05:02;;;;;;;12.50;5.83;;;;;;;17.21;100.00;99730.16;5090005;28;20044;-57
2022/08/14 12:07:49;;;;;;;9.57;5.90;;;;;;;17.21;100.00;99739.88;5098095;28;20298;-57
2022/08/14 12:10:21;;;;;;;14.20;6.97;;;;;;;17.23;100.00;99733.56;5097119;28;20634;-59
2022/08/14 12:13:15;;;;;;;;;;;;;;;17.24;100.00;99734.41;5096874;28;20361;-58
2022/08/14 12:15:48;;;;;;;11.77;6.53;;;;;;;17.18;100.00;99735.59;5099852;28;19916;-58
2022/08/14 12:18:35;;;;;;;11.50;6.70;;;;;;;17.00;100.00;99710.16;5102009;28;20302;-57
2022/08/14 12:21:17;;;;;;;13.30;6.47;;;;;;;17.14;100.00;99734.03;5102169;28;20274;-58
2022/08/14 12:24:09;;;;;;;14.53;7.23;;;;;;;17.14;100.00;99739.31;5102222;28;20325;-58
2022/08/14 12:27:13;;;;;;;17.10;6.67;;;;;;;17.09;100.00;99730.78;5099211;28;20278;-58
2022/08/14 12:30:10;;;;;;;14.37;7.50;;;;;;;17.04;100.00;99723.09;5096414;28;20803;-59
2022/08/14 12:35:59;;;;;;;11.57;7.00;;;;;;;17.05;100.00;99718.69;5064958;28;20459;-57
2022/08/14 12:38:50;;;;;;;14.73;7.90;;;;;;;16.97;100.00;99705.03;5081809;28;20310;-58
2022/08/14 12:41:30;;;;;;;16.23;7.63;;;;;;;17.04;100.00;99716.97;5081772;28;20283;-59
2022/08/14 12:44:20;;;;;;;18.10;7.63;;;;;;;17.08;100.00;99723.81;5067579;28;20315;-58
2022/08/14 12:47:04;;;;;;;20.93;7.43;;;;;;;17.07;100.00;99724.72;5081124;28;20059;-57
2022/08/14 12:49:52;;;;;;;19.37;7.77;;;;;;;16.95;100.00;99701.63;5081424;28;20338;-57
2022/08/14 12:52:32;;;;;;;14.33;7.67;;;;;;;17.10;100.00;99737.78;5081106;28;20365;-60
2022/08/14 12:55:25;;;;;;;22.73;7.40;;;;;;;17.10;100.00;99732.50;5081148;28;20455;-57
2022/08/14 12:58:20;;;;;;;46.10;7.83;;;;;;;17.09;100.00;99725.50;5081157;28;20310;-57
2022/08/14 13:01:09;;;;;;;27.37;7.67;;;;;;;17.06;100.00;99715.13;5080665;28;20297;-57
2022/08/14 13:03:49;;;;;;;18.30;8.03;;;;;;;17.13;100.00;99715.66;5081364;28;20283;-59
2022/08/14 13:06:23;;;;;;;27.60;7.73;;;;;;;17.18;100.00;99734.75;5081503;28;20282;-58
2022/08/14 13:08:56;;;;;;;45.97;8.13;;;;;;;17.13;100.00;99727.06;5081234;28;20325;-58
2022/08/14 13:11:36;;;;;;;9.53;7.07;;;;;;;17.10;100.00;99721.94;5081150;28;20407;-58
2022/08/14 13:14:13;;;;;;;13.17;7.47;;;;;;;17.16;100.00;99721.63;5081289;28;20275;-57
2022/08/14 13:16:49;;;;;;;15.47;7.37;;;;;;;17.16;100.00;99721.63;5081078;28;20314;-57
2022/08/14 13:19:27;;;;;;;13.30;7.77;;;;;;;17.19;100.00;99725.88;5081100;28;20289;-57
2022/08/14 13:21:58;;;;;;;18.37;9.03;;;;;;;17.23;100.00;99722.16;5081194;28;20294;-57
2022/08/14 13:24:42;;;;;;;21.33;8.13;;;;;;;17.27;100.00;99733.41;5081281;28;20285;-58
2022/08/14 13:27:18;;;;;;;20.47;7.73;;;;;;;17.27;100.00;99730.75;5080460;28;20325;-58
2022/08/14 13:30:00;;;;;;;;;;;;;;;17.28;100.00;99740.41;5081327;28;20321;-58
2022/08/14 13:32:59;;;;;;;13.27;8.60;;;;;;;17.28;100.00;99737.75;5080683;28;19975;-57
2022/08/14 13:35:32;;;;;;;35.13;8.82;;;;;;;17.27;100.00;99742.16;5080812;28;20322;-58